Time;durP1;ratioP1;P1;durP2;ratioP2;P2;SDS_P1;SDS_P2;PMS_P1;PMS_P2;Temp;Humidity;BMP_temperature;BMP_pressure;BME280_temperature;BME280_humidity;BME280_pressure;Samples;Min_cycle;Max_cycle;Signal;HPM_P1;HPM_P2
2021/12/12 00:00:48;;;;;;;;;;;;;;;-0.75;100.00;100274.50;5597997;31;33922;-83
2021/12/12 00:03:54;;;;;;;;;;;;;;;-0.74;100.00;100278.78;5598473;31;33915;-81
2021/12/12 00:06:57;;;;;;;;;;;;;;;-0.68;100.00;100281.09;5598133;31;34136;-82
2021/12/12 00:10:17;;;;;;;;;;;;;;;-0.74;100.00;100275.31;5596975;31;34389;-81
2021/12/12 00:13:21;;;;;;;;;;;;;;;-0.82;100.00;100283.47;5596680;31;34103;-81
2021/12/12 00:16:26;;;;;;;;;;;;;;;-0.77;100.00;100297.09;5598096;31;36151;-81
2021/12/12 00:19:29;;;;;;;;;;;;;;;-0.71;100.00;100307.19;5596894;31;34628;-82
2021/12/12 00:22:32;;;;;;;;;;;;;;;-0.78;100.00;100295.41;5598247;31;34105;-81
2021/12/12 00:25:37;;;;;;;;;;;;;;;-0.79;100.00;100304.13;5597443;31;34762;-81
2021/12/12 00:28:40;;;;;;;;;;;;;;;-0.93;100.00;100302.97;5596690;31;34822;-81
2021/12/12 00:31:43;;;;;;;;;;;;;;;-0.87;100.00;100306.22;5595990;31;34974;-81
2021/12/12 00:34:49;;;;;;;;;;;;;;;-0.90;100.00;100307.19;5596415;31;34646;-83
2021/12/12 00:37:56;;;;;;;;;;;;;;;-0.91;100.00;100299.47;5596886;31;34240;-81
2021/12/12 00:41:06;;;;;;;;;;;;;;;-0.84;100.00;100296.53;5597485;31;34499;-81
2021/12/12 00:44:09;;;;;;;;;;;;;;;-0.86;100.00;100297.50;5598190;31;34072;-82
2021/12/12 00:47:12;;;;;;;;;;;;;;;-0.86;100.00;100292.31;5596661;31;34439;-81
2021/12/12 00:50:37;;;;;;;;;;;;;;;-0.83;100.00;100285.22;5596489;31;34373;-82
2021/12/12 00:53:43;;;;;;;;;;;;;;;-0.86;100.00;100285.34;5599913;31;34418;-82
2021/12/12 00:56:47;;;;;;;;;;;;;;;-0.83;100.00;100286.97;5603185;31;34392;-81
2021/12/12 00:59:56;;;;;;;;;;;;;;;-0.87;100.00;100290.63;5604567;31;35014;-82
2021/12/12 01:02:58;;;;;;;;;;;;;;;-0.98;100.00;100294.56;5603673;31;34376;-82
2021/12/12 01:06:03;;;;;;;;;;;;;;;-0.98;100.00;100304.94;5601998;31;34649;-82
2021/12/12 01:09:09;;;;;;;;;;;;;;;-0.99;100.00;100316.22;5601486;31;34386;-82
2021/12/12 01:12:17;;;;;;;;;;;;;;;-0.97;100.00;100322.22;5601911;31;35457;-81
2021/12/12 01:15:23;;;;;;;;;;;;;;;-1.03;100.00;100326.81;5598724;31;35262;-81
2021/12/12 01:18:29;;;;;;;;;;;;;;;-1.00;100.00;100327.53;5600083;31;34421;-81
2021/12/12 01:21:37;;;;;;;;;;;;;;;-1.01;100.00;100333.62;5600544;31;34153;-81
2021/12/12 01:24:43;;;;;;;;;;;;;;;-1.10;100.00;100321.87;5601449;31;34375;-81
2021/12/12 01:27:45;;;;;;;;;;;;;;;-1.14;100.00;100329.88;5596572;31;35183;-82
2021/12/12 01:30:49;;;;;;;;;;;;;;;-1.11;100.00;100334.94;5596891;31;34515;-81
2021/12/12 01:34:13;;;;;;;;;;;;;;;-1.17;100.00;100336.03;5600259;31;34383;-81
2021/12/12 01:37:36;;;;;;;;;;;;;;;-1.16;100.00;100347.25;5598088;31;34207;-81
2021/12/12 01:40:41;;;;;;;;;;;;;;;-1.13;100.00;100347.12;5596150;31;33975;-81
2021/12/12 01:43:45;;;;;;;;;;;;;;;-1.17;100.00;100341.25;5597629;31;34225;-81
2021/12/12 01:46:57;;;;;;;;;;;;;;;-1.17;100.00;100350.75;5595507;31;34797;-82
2021/12/12 01:50:07;;;;;;;;;;;;;;;-1.15;100.00;100343.75;5596958;31;34801;-82
2021/12/12 01:53:11;;;;;;;;;;;;;;;-1.16;100.00;100347.25;5596192;31;34840;-82
2021/12/12 01:56:20;;;;;;;;;;;;;;;-1.10;100.00;100344.41;5596472;31;34934;-82
2021/12/12 01:59:24;;;;;;;;;;;;;;;-1.16;100.00;100352.44;5598066;31;34410;-81
2021/12/12 02:02:32;;;;;;;;;;;;;;;-1.21;100.00;100354.41;5598845;31;34459;-81
2021/12/12 02:05:36;;;;;;;;;;;;;;;-1.10;100.00;100360.00;5603528;31;35431;-81
2021/12/12 02:08:39;;;;;;;;;;;;;;;-1.09;100.00;100359.94;5597286;31;34271;-81
2021/12/12 02:11:43;;;;;;;;;;;;;;;-1.12;100.00;100354.03;5595906;31;34396;-82
2021/12/12 02:14:46;;;;;;;;;;;;;;;-1.23;100.00;100356.22;5596773;31;34346;-81
2021/12/12 02:17:50;;;;;;;;;;;;;;;-1.20;100.00;100356.94;5595996;31;33019;-82
2021/12/12 02:21:10;;;;;;;;;;;;;;;-1.22;100.00;100350.13;5596882;31;34159;-82
2021/12/12 02:35:04;;;;;;;;;;;;;;;-1.28;100.00;100333.88;5595924;31;34730;-82
2021/12/12 02:37:53;;;;;;;;;;;;;;;-1.18;100.00;100347.34;5598202;31;34096;-81
2021/12/12 02:40:58;;;;;;;;;;;;;;;-1.23;100.00;100332.84;5595819;31;34688;-82
2021/12/12 02:44:05;;;;;;;;;;;;;;;-1.19;100.00;100347.41;5595399;31;34481;-82
2021/12/12 02:47:13;;;;;;;;;;;;;;;-1.20;100.00;100346.56;5595160;31;34471;-82
2021/12/12 02:50:20;;;;;;;;;;;;;;;-1.29;100.00;100363.34;5596838;31;35024;-82
2021/12/12 02:53:25;;;;;;;;;;;;;;;-1.40;100.00;100350.84;5596956;31;34235;-82
2021/12/12 02:56:29;;;;;;;;;;;;;;;-1.38;100.00;100366.31;5598594;31;34346;-81
2021/12/12 02:59:34;;;;;;;;;;;;;;;-1.28;100.00;100362.44;5597067;31;34656;-82
2021/12/12 03:02:46;;;;;;;;;;;;;;;-1.36;100.00;100367.13;5595236;31;34635;-83
2021/12/12 03:05:48;;;;;;;;;;;;;;;-1.26;100.00;100376.22;5594573;31;35217;-82
2021/12/12 03:08:52;;;;;;;;;;;;;;;-1.41;100.00;100362.13;5595298;31;34358;-83
2021/12/12 03:12:01;;;;;;;;;;;;;;;-1.32;100.00;100368.69;5594682;31;33125;-82
2021/12/12 03:15:09;;;;;;;;;;;;;;;-1.36;100.00;100366.28;5594872;31;34839;-82
2021/12/12 03:18:15;;;;;;;;;;;;;;;-1.31;100.00;100372.97;5595239;31;34907;-82
2021/12/12 03:21:30;;;;;;;;;;;;;;;-1.37;100.00;100369.78;5594833;31;34544;-82
2021/12/12 03:24:33;;;;;;;;;;;;;;;-1.46;100.00;100377.03;5594443;31;34319;-82
2021/12/12 03:27:35;;;;;;;;;;;;;;;-1.43;100.00;100376.06;5596259;31;34049;-82
2021/12/12 03:30:38;;;;;;;;;;;;;;;-1.43;100.00;100382.09;5594965;31;34508;-81
2021/12/12 03:33:46;;;;;;;;;;;;;;;-1.42;100.00;100383.78;5594597;31;34563;-81
2021/12/12 03:36:49;;;;;;;;;;;;;;;-1.42;100.00;100398.53;5594083;31;34862;-81
2021/12/12 03:39:56;;;;;;;;;;;;;;;-1.39;100.00;100400.97;5594525;31;34095;-81
2021/12/12 03:43:00;;;;;;;;;;;;;;;-1.48;100.00;100402.22;5593986;31;37157;-83
2021/12/12 03:46:05;;;;;;;;;;;;;;;-1.56;100.00;100407.69;5593836;31;34184;-82
2021/12/12 03:49:08;;;;;;;;;;;;;;;-1.63;100.00;100416.63;5594082;31;34788;-81
2021/12/12 03:52:13;;;;;;;;;;;;;;;-1.54;100.00;100420.59;5593884;31;34306;-82
2021/12/12 03:55:16;;;;;;;;;;;;;;;-1.53;100.00;100431.84;5594993;31;34188;-82
2021/12/12 03:58:19;;;;;;;;;;;;;;;-1.52;100.00;100433.53;5594217;31;34426;-82
2021/12/12 04:01:33;;;;;;;;;;;;;;;-1.59;100.00;100438.94;5594767;31;34093;-82
2021/12/12 04:04:38;;;;;;;;;;;;;;;-1.49;100.00;100448.97;5594630;31;34628;-82
2021/12/12 04:07:43;;;;;;;;;;;;;;;-1.47;100.00;100454.94;5594260;31;33936;-82
2021/12/12 04:10:46;;;;;;;;;;;;;;;-1.53;100.00;100457.78;5595315;31;34220;-81
2021/12/12 04:13:50;;;;;;;;;;;;;;;-1.57;100.00;100447.53;5597926;31;35179;-82
2021/12/12 04:16:55;;;;;;;;;;;;;;;-1.52;100.00;100451.69;5596973;31;33972;-82
2021/12/12 04:19:59;;;;;;;;;;;;;;;-1.56;100.00;100454.41;5596880;31;34454;-82
2021/12/12 04:23:02;;;;;;;;;;;;;;;-1.53;100.00;100457.78;5596851;31;34139;-82
2021/12/12 04:26:20;;;;;;;;;;;;;;;-1.47;100.00;100457.53;5597532;31;34739;-82
2021/12/12 04:29:32;;;;;;;;;;;;;;;-1.51;100.00;100461.16;5599140;31;34667;-82
2021/12/12 04:32:35;;;;;;;;;;;;;;;-1.49;100.00;100469.72;5599404;31;34132;-83
2021/12/12 04:35:38;;;;;;;;;;;;;;;-1.61;100.00;100465.88;5602922;31;34174;-82
2021/12/12 04:38:40;;;;;;;;;;;;;;;-1.65;100.00;100453.91;5597445;31;34952;-82
2021/12/12 04:41:53;;;;;;;;;;;;;;;-1.58;100.00;100458.81;5596953;31;34008;-82
2021/12/12 04:45:06;;;;;;;;;;;;;;;-1.51;100.00;100455.97;5596922;31;34677;-82
2021/12/12 04:51:42;;;;;;;;;;;;;;;-1.59;100.00;100454.53;5596516;31;34496;-83
2021/12/12 04:54:53;;;;;;;;;;;;;;;-1.60;100.00;100463.19;5597695;31;34164;-82
2021/12/12 04:57:58;;;;;;;;;;;;;;;-1.64;100.00;100459.06;5596571;31;35002;-82
2021/12/12 05:01:06;;;;;;;;;;;;;;;-1.43;100.00;100459.12;5596735;31;35051;-82
2021/12/12 05:04:46;;;;;;;;;;;;;;;-1.38;100.00;100451.97;5596453;31;34491;-82
2021/12/12 05:07:53;;;;;;;;;;;;;;;-1.41;100.00;100454.72;5516021;32;34361;-82
2021/12/12 05:10:58;;;;;;;;;;;;;;;-1.40;100.00;100458.97;5516378;32;33971;-81
2021/12/12 05:14:06;;;;;;;;;;;;;;;-1.37;100.00;100447.66;5518025;32;33963;-82
2021/12/12 05:17:19;;;;;;;;;;;;;;;-1.45;100.00;100460.94;5516913;32;32704;-81
2021/12/12 05:20:27;;;;;;;;;;;;;;;-1.42;100.00;100466.00;5516576;32;34239;-82
2021/12/12 05:23:31;;;;;;;;;;;;;;;-1.46;100.00;100459.22;5519112;32;34294;-81
2021/12/12 05:26:36;;;;;;;;;;;;;;;-1.34;100.00;100471.72;5520750;32;34780;-82
2021/12/12 05:29:41;;;;;;;;;;;;;;;-1.32;100.00;100471.66;5519867;32;33773;-82
2021/12/12 05:32:44;;;;;;;;;;;;;;;-1.30;100.00;100473.31;5516631;32;33839;-82
2021/12/12 05:35:47;;;;;;;;;;;;;;;-1.40;100.00;100467.63;5517282;32;34119;-82
2021/12/12 05:38:50;;;;;;;;;;;;;;;-1.34;100.00;100457.87;5516750;32;33999;-82
2021/12/12 05:41:54;;;;;;;;;;;;;;;-1.33;100.00;100460.44;5564910;31;34778;-82
2021/12/12 05:45:00;;;;;;;;;;;;;;;-1.25;100.00;100467.94;5597431;31;34190;-82
2021/12/12 05:48:04;;;;;;;;;;;;;;;-1.17;99.92;100465.00;5597113;31;34424;-82
2021/12/12 05:51:06;;;;;;;;;;;;;;;-1.07;99.08;100471.53;5596440;31;34702;-81
2021/12/12 05:54:15;;;;;;;;;;;;;;;-1.19;99.79;100470.25;5596557;31;34103;-81
2021/12/12 05:57:24;;;;;;;;;;;;;;;-1.20;99.71;100457.34;5597245;31;34261;-81
2021/12/12 06:00:29;;;;;;;;;;;;;;;-1.20;100.00;100465.16;5597813;31;34147;-81
2021/12/12 06:03:33;;;;;;;;;;;;;;;-1.19;99.70;100472.88;5595906;31;34725;-81
2021/12/12 06:06:41;;;;;;;;;;;;;;;-1.17;99.60;100480.56;5601959;31;34407;-81
2021/12/12 06:09:44;;;;;;;;;;;;;;;-1.19;99.46;100492.81;5601361;31;35394;-81
2021/12/12 06:12:48;;;;;;;;;;;;;;;-1.33;100.00;100476.03;5597031;31;35229;-82
2021/12/12 06:15:53;;;;;;;;;;;;;;;-1.36;100.00;100476.12;5597862;31;34969;-82
2021/12/12 06:18:58;;;;;;;;;;;;;;;-1.33;99.80;100485.53;5596646;31;34186;-81
2021/12/12 06:22:02;;;;;;;;;;;;;;;-1.34;99.61;100491.63;5596623;31;34082;-82
2021/12/12 06:25:08;;;;;;;;;;;;;;;-1.32;99.52;100492.44;5595599;31;34597;-81
2021/12/12 06:28:15;;;;;;;;;;;;;;;-1.31;99.64;100502.75;5595521;31;34695;-81
2021/12/12 06:31:20;;;;;;;;;;;;;;;-1.28;99.38;100492.25;5596812;31;34923;-82
2021/12/12 06:34:23;;;;;;;;;;;;;;;-1.23;98.38;100510.22;5596471;31;34974;-82
2021/12/12 06:37:27;;;;;;;;;;;;;;;-1.35;99.66;100508.97;5595118;31;35180;-81
2021/12/12 06:40:30;;;;;;;;;;;;;;;-1.32;99.21;100508.84;5595111;31;34330;-82
2021/12/12 06:43:33;;;;;;;;;;;;;;;-1.23;98.42;100517.19;5595833;31;34383;-82
2021/12/12 06:46:39;;;;;;;;;;;;;;;-1.19;97.78;100529.16;5596223;31;34539;-83
2021/12/12 06:49:42;;;;;;;;;;;;;;;-1.22;98.29;100524.06;5596377;31;35201;-82
2021/12/12 06:52:48;;;;;;;;;;;;;;;-1.19;97.73;100514.41;5597405;31;34540;-82
2021/12/12 06:55:52;;;;;;;;;;;;;;;-1.31;98.42;100513.16;5596686;31;35004;-82
2021/12/12 06:58:57;;;;;;;;;;;;;;;-1.30;98.25;100517.44;5596733;31;35228;-81
2021/12/12 07:02:05;;;;;;;;;;;;;;;-1.31;98.56;100518.34;5595653;31;33784;-82
2021/12/12 07:05:10;;;;;;;;;;;;;;;-1.26;98.29;100508.59;5595999;31;33990;-82
2021/12/12 07:08:15;;;;;;;;;;;;;;;-1.26;98.46;100515.56;5597314;31;34342;-82
2021/12/12 07:11:22;;;;;;;;;;;;;;;-1.12;97.13;100512.41;5595099;31;34004;-81
2021/12/12 07:14:25;;;;;;;;;;;;;;;-1.07;97.04;100518.28;5594455;31;35193;-82
2021/12/12 07:17:28;;;;;;;;;;;;;;;-1.02;96.31;100521.53;5594618;31;34740;-82
2021/12/12 07:20:31;;;;;;;;;;;;;;;-1.01;96.67;100523.22;5596550;31;34471;-82
2021/12/12 07:23:34;;;;;;;;;;;;;;;-0.96;96.14;100526.47;5594744;31;34388;-81
2021/12/12 07:26:38;;;;;;;;;;;;;;;-0.99;96.70;100521.41;5596139;31;35127;-82
2021/12/12 07:29:41;;;;;;;;;;;;;;;-0.99;96.90;100530.94;5594488;31;35202;-81
2021/12/12 07:32:44;;;;;;;;;;;;;;;-0.94;96.39;100513.44;5594902;31;34721;-82
2021/12/12 07:35:48;;;;;;;;;;;;;;;-0.88;95.95;100527.91;5595048;31;34027;-82
2021/12/12 07:39:01;;;;;;;;;;;;;;;-0.97;96.42;100514.41;5594149;31;34146;-82
2021/12/12 07:42:04;;;;;;;;;;;;;;;-0.97;96.14;100519.59;5596650;31;34200;-81
2021/12/12 07:45:07;;;;;;;;;;;;;;;-0.94;96.32;100518.63;5595807;31;34437;-82
2021/12/12 07:48:12;;;;;;;;;;;;;;;-0.93;96.03;100528.94;5598628;31;34218;-81
2021/12/12 07:51:15;;;;;;;;;;;;;;;-0.87;95.79;100524.41;5598341;31;33969;-81
2021/12/12 07:54:18;;;;;;;;;;;;;;;-0.89;95.97;100526.22;5597823;31;33868;-82
2021/12/12 07:57:21;;;;;;;;;;;;;;;-0.86;95.36;100531.31;5598491;31;34978;-82
2021/12/12 08:00:25;;;;;;;;;;;;;;;-0.83;95.15;100536.34;5598102;31;35130;-81
2021/12/12 08:03:31;;;;;;;;;;;;;;;-0.95;96.82;100541.13;5597191;31;34427;-82
2021/12/12 08:06:34;;;;;;;;;;;;;;;-0.82;95.04;100538.06;5597109;31;35121;-82
2021/12/12 08:09:41;;;;;;;;;;;;;;;-0.84;95.12;100524.28;5597930;31;33841;-82
2021/12/12 08:12:45;;;;;;;;;;;;;;;-0.85;94.95;100533.00;5596985;31;34288;-82
2021/12/12 08:15:50;;;;;;;;;;;;;;;-0.87;95.74;100542.59;5598363;31;35243;-83
2021/12/12 08:18:55;;;;;;;;;;;;;;;-0.63;93.77;100549.41;5597693;31;34658;-81
2021/12/12 08:22:03;;;;;;;;;;;;;;;-0.48;92.49;100541.84;5596917;31;34564;-82
2021/12/12 08:25:08;;;;;;;;;;;;;;;-0.47;92.59;100539.22;5597994;31;35354;-81
2021/12/12 08:28:10;;;;;;;;;;;;;;;-0.38;92.01;100552.72;5596956;31;34335;-81
2021/12/12 08:31:13;;;;;;;;;;;;;;;-0.39;92.24;100551.84;5597962;31;34196;-81
2021/12/12 08:34:19;;;;;;;;;;;;;;;-0.32;91.28;100555.03;5596693;31;34782;-82
2021/12/12 08:37:21;;;;;;;;;;;;;;;-0.26;91.52;100551.34;5596297;31;34409;-82
2021/12/12 08:40:27;;;;;;;;;;;;;;;-0.20;91.01;100551.94;5596291;31;34127;-81
2021/12/12 08:43:31;;;;;;;;;;;;;;;-0.06;89.55;100551.34;5596624;31;34068;-81
2021/12/12 08:46:34;;;;;;;;;;;;;;;0.02;89.55;100550.16;5596470;31;34390;-82
2021/12/12 08:49:38;;;;;;;;;;;;;;;0.10;88.34;100553.25;5596295;31;34497;-82
2021/12/12 08:52:45;;;;;;;;;;;;;;;0.11;88.95;100549.75;5597645;31;35694;-81
2021/12/12 08:55:54;;;;;;;;;;;;;;;0.16;89.10;100553.00;5595995;31;34491;-82
2021/12/12 08:58:59;;;;;;;;;;;;;;;0.24;88.33;100557.84;5596604;31;35206;-81
2021/12/12 09:02:05;;;;;;;;;;;;;;;0.30;87.37;100550.59;5596553;31;34339;-81
2021/12/12 09:05:13;;;;;;;;;;;;;;;0.35;87.17;100552.16;5596157;31;36647;-82
2021/12/12 09:08:44;;;;;;;;;;;;;;;0.37;87.01;100545.13;5598047;31;34928;-81
2021/12/12 09:11:52;;;;;;;;;;;;;;;0.39;87.30;100554.56;5596097;31;35512;-81
2021/12/12 09:15:30;;;;;;;;;;;;;;;0.44;86.01;100551.75;5596658;31;34069;-81
2021/12/12 09:18:35;;;;;;;;;;;;;;;0.52;85.76;100554.84;5521404;31;34532;-82
2021/12/12 09:21:49;;;;;;;;;;;;;;;0.51;86.17;100547.94;5598113;31;34428;-82
2021/12/12 09:25:03;;;;;;;;;;;;;;;0.40;87.12;100543.25;5600321;31;34646;-82
2021/12/12 09:28:16;;;;;;;;;;;;;;;0.41;86.26;100544.94;5597802;31;34610;-82
2021/12/12 09:31:24;;;;;;;;;;;;;;;0.50;85.98;100546.28;5595636;31;34630;-82
2021/12/12 09:34:32;;;;;;;;;;;;;;;0.60;85.91;100542.34;5596586;31;34148;-82
2021/12/12 09:38:13;;;;;;;;;;;;;;;0.61;85.08;100544.03;5597046;31;34523;-81
2021/12/12 09:41:35;;;;;;;;;;;;;;;0.50;86.01;100541.06;5582411;31;34021;-82
2021/12/12 09:44:40;;;;;;;;;;;;;;;0.56;85.65;100540.78;5598691;31;34545;-82
2021/12/12 09:48:27;;;;;;;;;;;;;;;0.54;85.56;100545.19;5595835;31;35019;-82
2021/12/12 09:51:49;;;;;;;;;;;;;;;0.61;85.82;100531.00;5597955;31;33939;-82
2021/12/12 09:54:52;;;;;;;;;;;;;;;0.66;84.99;100529.91;5596881;31;34998;-81
2021/12/12 09:57:55;;;;;;;;;;;;;;;0.65;85.61;100523.03;5596911;31;34446;-82
2021/12/12 10:01:01;;;;;;;;;;;;;;;0.68;85.44;100534.12;5597211;31;33825;-81
2021/12/12 10:04:26;;;;;;;;;;;;;;;0.82;84.77;100540.47;5596532;31;34389;-82
2021/12/12 10:07:52;;;;;;;;;;;;;;;0.79;84.74;100541.47;5596895;31;34214;-81
2021/12/12 10:10:57;;;;;;;;;;;;;;;0.86;84.84;100553.25;5596298;31;35374;-81
2021/12/12 10:14:08;;;;;;;;;;;;;;;0.94;85.19;100550.28;5596155;31;34770;-81
2021/12/12 10:17:13;;;;;;;;;;;;;;;0.97;84.61;100544.09;5597878;31;33766;-82
2021/12/12 10:20:29;;;;;;;;;;;;;;;1.06;83.77;100528.03;5595864;31;34564;-82
2021/12/12 10:23:52;;;;;;;;;;;;;;;1.10;83.84;100534.78;5597458;31;34266;-82
2021/12/12 10:27:01;;;;;;;;;;;;;;;1.10;83.56;100532.16;5557209;31;34097;-82
2021/12/12 10:30:06;;;;;;;;;;;;;;;1.17;83.74;100536.19;5582441;31;35086;-81
2021/12/12 10:33:14;;;;;;;;;;;;;;;1.18;83.14;100540.44;5596559;31;35570;-84
2021/12/12 10:36:19;;;;;;;;;;;;;;;1.29;82.94;100534.72;5595752;31;34574;-82
2021/12/12 10:39:25;;;;;;;;;;;;;;;1.39;83.00;100530.72;5596133;31;34241;-82
2021/12/12 10:42:30;;;;;;;;;;;;;;;1.50;82.01;100521.53;5596307;31;34537;-82
2021/12/12 10:45:36;;;;;;;;;;;;;;;1.60;81.49;100516.69;5596091;31;33935;-82
2021/12/12 10:48:55;;;;;;;;;;;;;;;1.74;80.51;100522.06;5595730;31;35171;-82
2021/12/12 10:52:11;;;;;;;;;;;;;;;1.81;80.49;100531.25;5595409;31;34664;-83
2021/12/12 10:55:14;;;;;;;;;;;;;;;1.83;80.32;100524.19;5595779;31;34091;-83
2021/12/12 10:58:28;;;;;;;;;;;;;;;1.76;81.25;100528.00;5595552;31;34598;-83
2021/12/12 11:01:33;;;;;;;;;;;;;;;1.77;80.58;100518.44;5599221;31;34256;-83
2021/12/12 11:04:38;;;;;;;;;;;;;;;1.79;80.55;100517.44;5597112;31;34641;-83
2021/12/12 11:07:54;;;;;;;;;;;;;;;1.74;80.78;100519.44;5596036;31;34576;-83
2021/12/12 11:10:58;;;;;;;;;;;;;;;1.84;80.64;100519.78;5595320;31;34855;-83
2021/12/12 11:14:21;;;;;;;;;;;;;;;1.79;80.56;100519.22;5597244;31;34229;-83
2021/12/12 11:17:33;;;;;;;;;;;;;;;1.80;79.99;100519.13;5596378;31;34544;-84
2021/12/12 11:20:36;;;;;;;;;;;;;;;1.82;80.71;100517.28;5596973;31;34141;-82
2021/12/12 11:23:42;;;;;;;;;;;;;;;1.83;80.02;100500.72;5598746;31;34313;-83
2021/12/12 11:26:53;;;;;;;;;;;;;;;1.82;80.54;100509.44;5599081;31;35375;-82
2021/12/12 11:30:07;;;;;;;;;;;;;;;1.81;80.18;100494.72;5598575;31;33932;-82
2021/12/12 11:33:12;;;;;;;;;;;;;;;1.74;80.98;100488.16;5598474;31;34737;-82
2021/12/12 11:36:16;;;;;;;;;;;;;;;1.80;80.25;100497.41;5598997;31;34573;-82
2021/12/12 11:39:42;;;;;;;;;;;;;;;1.87;79.69;100490.94;5599444;31;34329;-82
2021/12/12 11:42:47;;;;;;;;;;;;;;;1.84;79.43;100505.00;5590003;31;33992;-83
2021/12/12 11:45:57;;;;;;;;;;;;;;;1.89;79.88;100501.28;5600304;31;34417;-83
2021/12/12 11:49:05;;;;;;;;;;;;;;;1.91;79.59;100495.09;5598723;31;35147;-82
2021/12/12 11:52:10;;;;;;;;;;;;;;;1.89;80.00;100496.06;5599148;31;34949;-84
2021/12/12 11:55:15;;;;;;;;;;;;;;;1.92;79.16;100495.91;5598368;31;35219;-83
2021/12/12 11:58:21;;;;;;;;;;;;;;;1.99;79.38;100497.28;5598087;31;33914;-83
2021/12/12 12:01:31;;;;;;;;;;;;;;;1.97;79.45;100509.59;5598089;31;34401;-82
2021/12/12 12:04:52;;;;;;;;;;;;;;;2.05;79.73;100490.88;5598224;31;34264;-83
2021/12/12 12:08:01;;;;;;;;;;;;;;;2.05;78.57;100491.75;5598437;31;35427;-84
2021/12/12 12:11:07;;;;;;;;;;;;;;;2.12;78.78;100493.09;5598143;31;33982;-82
2021/12/12 12:14:10;;;;;;;;;;;;;;;2.14;78.26;100499.06;5599097;31;34363;-83
2021/12/12 12:17:28;;;;;;;;;;;;;;;2.21;77.82;100485.69;5604631;31;35293;-83
2021/12/12 12:20:36;;;;;;;;;;;;;;;2.27;77.40;100503.62;5599444;31;34554;-82
2021/12/12 12:24:10;;;;;;;;;;;;;;;2.26;77.63;100504.56;5598673;31;34446;-83
2021/12/12 12:27:16;;;;;;;;;;;;;;;2.15;77.69;100498.16;5597580;31;34509;-83
2021/12/12 12:30:31;;;;;;;;;;;;;;;2.23;77.55;100491.66;5599383;31;34120;-82
2021/12/12 12:33:52;;;;;;;;;;;;;;;2.25;76.88;100508.09;5598971;31;34324;-83
2021/12/12 12:37:13;;;;;;;;;;;;;;;2.14;77.21;100506.91;5599141;31;35533;-85
2021/12/12 12:40:37;;;;;;;;;;;;;;;2.24;76.75;100511.63;5599343;31;33823;-83
2021/12/12 12:44:01;;;;;;;;;;;;;;;2.22;77.27;100513.47;5597929;31;34549;-82
2021/12/12 12:47:28;;;;;;;;;;;;;;;2.26;77.11;100513.22;5597477;31;34495;-82
2021/12/12 12:50:46;;;;;;;;;;;;;;;2.29;76.51;100513.06;5597634;31;34328;-83
2021/12/12 12:54:07;;;;;;;;;;;;;;;2.27;76.51;100508.88;5597945;31;33887;-81
2021/12/12 12:57:19;;;;;;;;;;;;;;;2.14;76.89;100509.53;5597345;31;34971;-82
2021/12/12 13:00:24;;;;;;;;;;;;;;;2.12;76.77;100524.41;5597982;31;35406;-83
2021/12/12 13:03:26;;;;;;;;;;;;;;;2.13;76.36;100507.81;5596576;31;34570;-81
2021/12/12 13:06:49;;;;;;;;;;;;;;;2.17;76.99;100537.22;5597430;31;33827;-81
2021/12/12 13:10:07;;;;;;;;;;;;;;;2.12;76.38;100532.25;5597334;31;34466;-82
2021/12/12 13:13:17;;;;;;;;;;;;;;;2.14;76.47;100537.38;5596578;31;34246;-82
2021/12/12 13:16:43;;;;;;;;;;;;;;;2.14;76.47;100540.84;5597886;31;34456;-82
2021/12/12 13:19:55;;;;;;;;;;;;;;;2.11;76.01;100546.22;5597804;31;35019;-83
2021/12/12 13:23:16;;;;;;;;;;;;;;;2.09;75.88;100545.44;5599384;31;34674;-84
2021/12/12 13:26:31;;;;;;;;;;;;;;;2.10;75.85;100554.97;5597745;31;34782;-83
2021/12/12 13:29:54;;;;;;;;;;;;;;;1.98;77.71;100568.66;5598837;31;35497;-83
2021/12/12 13:33:15;;;;;;;;;;;;;;;2.11;76.21;100569.69;5597450;31;34053;-83
2021/12/12 13:36:21;;;;;;;;;;;;;;;2.10;76.09;100578.47;5598429;31;34164;-84
2021/12/12 13:39:43;;;;;;;;;;;;;;;2.11;76.53;100580.16;5597400;31;34291;-83
2021/12/12 13:43:06;;;;;;;;;;;;;;;2.20;76.11;100593.63;5597681;31;34836;-84
2021/12/12 13:46:27;;;;;;;;;;;;;;;2.20;76.74;100594.50;5597764;31;34805;-84
2021/12/12 13:49:34;;;;;;;;;;;;;;;2.25;75.84;100597.69;5597400;31;33850;-83
2021/12/12 13:52:54;;;;;;;;;;;;;;;2.32;76.41;100598.22;5596985;31;34755;-84
2021/12/12 13:56:08;;;;;;;;;;;;;;;2.31;76.22;100580.84;5598383;31;34326;-85
2021/12/12 13:59:34;;;;;;;;;;;;;;;2.39;74.98;100599.59;5597838;31;34789;-83
2021/12/12 14:02:42;;;;;;;;;;;;;;;2.33;74.73;100589.47;5590517;31;34191;-84
2021/12/12 14:05:46;;;;;;;;;;;;;;;2.37;75.81;100595.34;5596816;31;34305;-82
2021/12/12 14:08:50;;;;;;;;;;;;;;;2.27;75.85;100605.47;5596875;31;34391;-84
2021/12/12 14:11:59;;;;;;;;;;;;;;;2.29;75.25;100603.63;5598051;31;34480;-82
2021/12/12 14:15:05;;;;;;;;;;;;;;;2.32;76.51;100606.06;5600742;31;34479;-82
2021/12/12 14:18:10;;;;;;;;;;;;;;;2.13;75.74;100620.06;5600537;31;34808;-83
2021/12/12 14:21:14;;;;;;;;;;;;;;;2.09;76.19;100620.31;5597460;31;34004;-83
2021/12/12 14:24:21;;;;;;;;;;;;;;;1.90;76.46;100631.69;5596118;31;34096;-83
2021/12/12 14:27:25;;;;;;;;;;;;;;;1.81;77.21;100624.31;5597578;31;34703;-84
2021/12/12 14:30:33;;;;;;;;;;;;;;;1.80;77.24;100615.66;5597064;31;36093;-83
2021/12/12 14:33:42;;;;;;;;;;;;;;;1.66;77.84;100626.78;5597017;31;33878;-82
2021/12/12 14:36:50;;;;;;;;;;;;;;;1.60;78.62;100626.22;5596037;31;34143;-83
2021/12/12 14:40:25;;;;;;;;;;;;;;;1.46;78.76;100635.56;5596269;31;34458;-83
2021/12/12 14:43:35;;;;;;;;;;;;;;;1.45;79.07;100641.69;5594989;31;34488;-83
2021/12/12 14:46:46;;;;;;;;;;;;;;;1.46;78.54;100646.00;5595976;31;34473;-83
2021/12/12 14:49:53;;;;;;;;;;;;;;;1.27;78.83;100640.00;5596423;31;34161;-82
2021/12/12 14:52:57;;;;;;;;;;;;;;;1.13;80.49;100644.09;5596015;31;34291;-83
2021/12/12 14:56:08;;;;;;;;;;;;;;;1.14;80.66;100643.16;5594601;31;33880;-82
2021/12/12 14:59:21;;;;;;;;;;;;;;;1.01;81.38;100650.72;5595325;31;34602;-82
2021/12/12 15:02:34;;;;;;;;;;;;;;;1.01;81.51;100649.88;5595225;31;34529;-84
2021/12/12 15:05:48;;;;;;;;;;;;;;;0.84;82.24;100648.91;5595954;31;34224;-82
2021/12/12 15:08:54;;;;;;;;;;;;;;;0.73;83.09;100640.72;5596208;31;34308;-82
2021/12/12 15:12:02;;;;;;;;;;;;;;;0.70;83.93;100664.28;5596199;31;34017;-83
2021/12/12 15:15:07;;;;;;;;;;;;;;;0.75;83.16;100650.16;5597105;31;34872;-82
2021/12/12 15:18:13;;;;;;;;;;;;;;;0.68;84.11;100645.28;5595451;31;34263;-83
2021/12/12 15:21:38;;;;;;;;;;;;;;;0.70;83.40;100638.25;5595150;31;35584;-84
2021/12/12 15:24:47;;;;;;;;;;;;;;;0.66;83.95;100655.78;5596723;31;34984;-84
2021/12/12 15:27:52;;;;;;;;;;;;;;;0.68;83.68;100637.47;5597574;31;34306;-82
2021/12/12 15:30:56;;;;;;;;;;;;;;;0.71;83.90;100653.78;5595554;31;33793;-82
2021/12/12 15:33:59;;;;;;;;;;;;;;;0.71;84.03;100668.59;5596686;31;34993;-83
2021/12/12 15:37:04;;;;;;;;;;;;;;;0.71;83.46;100676.41;5595755;31;34774;-82
2021/12/12 15:40:12;;;;;;;;;;;;;;;0.65;83.64;100674.06;5597405;31;34007;-84
2021/12/12 15:43:23;;;;;;;;;;;;;;;0.82;82.44;100687.19;5596998;31;33938;-83
2021/12/12 15:46:27;;;;;;;;;;;;;;;0.80;82.41;100693.34;5594203;31;36049;-82
2021/12/12 15:49:40;;;;;;;;;;;;;;;0.76;83.55;100703.06;5601051;31;34609;-83
2021/12/12 15:52:45;;;;;;;;;;;;;;;0.78;82.77;100711.66;5597926;31;35352;-84
2021/12/12 15:56:08;;;;;;;;;;;;;;;0.72;83.12;100711.97;5597128;31;35043;-83
2021/12/12 15:59:12;;;;;;;;;;;;;;;0.60;83.33;100727.22;5595249;31;36224;-83
2021/12/12 16:02:24;;;;;;;;;;;;;;;0.52;84.03;100721.47;5594379;31;33957;-82
2021/12/12 16:05:36;;;;;;;;;;;;;;;0.44;84.38;100727.03;5594541;31;33854;-83
2021/12/12 16:08:40;;;;;;;;;;;;;;;0.43;84.64;100711.44;5596243;31;33888;-82
2021/12/12 16:11:43;;;;;;;;;;;;;;;0.26;85.67;100705.22;5598510;31;34227;-83
2021/12/12 16:14:48;;;;;;;;;;;;;;;0.17;86.62;100713.41;5597667;31;34666;-83
2021/12/12 16:17:56;;;;;;;;;;;;;;;0.22;86.31;100708.84;5597999;31;34447;-83
2021/12/12 16:20:59;;;;;;;;;;;;;;;0.09;86.85;100713.75;5598242;31;35116;-82
2021/12/12 16:24:04;;;;;;;;;;;;;;;0.08;87.67;100705.97;5597529;31;34736;-82